Overseas Boston — WJBU — position and weather

sailwx.info

Track history (hours):
 
Tides and Currents Weather Stations Pressure Air Temp Water Temp Dewpoint Dewpoint Depression Visibility Wind Speed Wind Dir Waves Ship Positions

Overseas Boston

Owner: ASC Leasing VI, Inc., Philadelphia, PA. More information available from US FCC via Universal Licensing System and Coast Guard Vessel Documentation Center.

Last reported at 2014-Nov-27 19:32 UTC. Time now 2014-Nov-27 19:36 UTC.
Position N 33°46' W 118°13'.

Length 183 m; draft 7.5 m.

Type: Tanker. MMSI: 338221000.

Date/timePositionNaut miles runAvg speedWind from/ knotsBaromVisibWave heightAir tempDewpointWater temp
2014-Nov-27 19:32N 33°46' W 118°13'0 0.0
2014-Nov-27 18:32N 33°47' W 118°13'0 0.0
2014-Nov-27 17:23N 33°46' W 118°13'0 0.0
2014-Nov-27 16:32N 33°46' W 118°13'0 0.0
2014-Nov-27 15:17N 33°46' W 118°13'0 0.0
2014-Nov-27 14:29N 33°46' W 118°13'0 0.0
2014-Nov-27 11:23N 33°46' W 118°13'0 0.0
2014-Nov-27 10:29N 33°46' W 118°13'0 0.0
2014-Nov-27 09:26N 33°46' W 118°13'0 0.0
2014-Nov-27 08:32N 33°46' W 118°13'0 0.0
2014-Nov-27 07:26N 33°46' W 118°13'0 0.0
2014-Nov-27 06:32N 33°46' W 118°13'0 0.0
2014-Nov-27 05:32N 33°46' W 118°13'0 0.0
2014-Nov-27 04:29N 33°46' W 118°13'0 0.0
2014-Nov-27 03:32N 33°46' W 118°13'0 0.4
2014-Nov-27 02:33N 33°46' W 118°13'3 2.9
2014-Nov-27 01:33N 33°43' W 118°13'0 0.1
2014-Nov-27 00:33N 33°43' W 118°13'0 0.0
2014-Nov-26 23:27N 33°43' W 118°13'0 0.1
2014-Nov-26 22:30N 33°44' W 118°13'0 0.0
2014-Nov-26 21:30N 33°44' W 118°13'0 0.0
2014-Nov-26 20:33N 33°44' W 118°13'1 1.1
2014-Nov-26 19:33N 33°44' W 118°12'1 0.5
2014-Nov-26 18:29N 33°45' W 118°13'0 0.0
2014-Nov-26 17:29N 33°45' W 118°13'0 0.0
2014-Nov-26 16:29N 33°45' W 118°13'0 0.0
2014-Nov-26 15:32N 33°45' W 118°13'0 0.0
2014-Nov-26 14:29N 33°45' W 118°13'0 0.0
2014-Nov-26 13:32N 33°45' W 118°13'0 0.0
2014-Nov-26 12:29N 33°45' W 118°13'0 0.0
2014-Nov-26 10:26N 33°45' W 118°13'0 0.0
2014-Nov-26 09:11N 33°45' W 118°13'0 0.0
2014-Nov-26 08:29N 33°45' W 118°13'0 0.0
2014-Nov-26 07:29N 33°45' W 118°13'0 0.0
2014-Nov-26 06:32N 33°45' W 118°13'0 0.0
2014-Nov-26 05:14N 33°45' W 118°13'0 0.0
2014-Nov-26 04:11N 33°45' W 118°13'0 0.0
2014-Nov-26 03:23N 33°45' W 118°13'0 0.0
2014-Nov-26 01:32N 33°45' W 118°13'0 0.0
2014-Nov-26 00:32N 33°45' W 118°13'0 0.0
2014-Nov-25 23:32N 33°45' W 118°13'0 0.0
2014-Nov-25 22:23N 33°45' W 118°13'0 0.0
2014-Nov-25 21:26N 33°45' W 118°13'0 0.0
2014-Nov-25 20:32N 33°45' W 118°13'0 0.0
2014-Nov-25 19:29N 33°45' W 118°13'1 0.7
2014-Nov-25 18:33N 33°44' W 118°12'3 2.4
2014-Nov-25 17:31N 33°44' W 118°09'0 0.0
2014-Nov-25 16:31N 33°44' W 118°09'0 0.0
2014-Nov-25 15:28N 33°44' W 118°09'0 0.0
2014-Nov-25 14:28N 33°44' W 118°09'0 0.0
2014-Nov-25 13:31N 33°44' W 118°09'0 0.0
2014-Nov-25 12:31N 33°44' W 118°09'0 0.0
2014-Nov-25 11:31N 33°44' W 118°09'0 0.0
2014-Nov-25 10:31N 33°44' W 118°09'0 0.0
2014-Nov-25 09:31N 33°44' W 118°09'0 0.0
2014-Nov-25 08:28N 33°44' W 118°10'0 0.0
2014-Nov-25 07:25N 33°44' W 118°10'0 0.0
2014-Nov-25 06:28N 33°44' W 118°10'0 0.0
2014-Nov-25 04:16N 33°44' W 118°10'0 0.2
2014-Nov-25 03:31N 33°44' W 118°10'0 0.1
2014-Nov-25 02:31N 33°44' W 118°09'0 0.0
2014-Nov-25 00:31N 33°44' W 118°09'0 0.0
2014-Nov-24 23:31N 33°44' W 118°09'0 0.0
2014-Nov-24 22:31N 33°44' W 118°09'0 0.1
2014-Nov-24 21:31N 33°44' W 118°09'0 0.1
2014-Nov-24 20:31N 33°44' W 118°10'0 0.1
2014-Nov-24 19:31N 33°44' W 118°10'0 0.2
2014-Nov-24 18:31N 33°44' W 118°09'0 0.1
2014-Nov-24 17:31N 33°44' W 118°10'0 0.1
2014-Nov-24 16:31N 33°44' W 118°09'0 0.0
2014-Nov-24 15:31N 33°44' W 118°09'0 0.0
2014-Nov-24 14:31N 33°44' W 118°09'0 0.0
2014-Nov-24 13:31N 33°44' W 118°09'0 0.0
2014-Nov-24 12:31N 33°44' W 118°09'0 0.0
2014-Nov-24 11:31N 33°44' W 118°09'0 0.1
2014-Nov-24 10:31N 33°44' W 118°09'0 0.1
2014-Nov-24 09:31N 33°44' W 118°09'0 0.0
2014-Nov-24 08:31N 33°44' W 118°09'0 0.0
2014-Nov-24 07:31N 33°44' W 118°10'0 0.1
2014-Nov-24 06:25N 33°44' W 118°10'0 0.0
2014-Nov-24 05:10N 33°44' W 118°10'0 0.0
2014-Nov-24 04:31N 33°44' W 118°10'0 0.1
2014-Nov-24 03:31N 33°44' W 118°09'0 0.1
2014-Nov-24 02:31N 33°44' W 118°09'0 0.0
2014-Nov-24 01:31N 33°44' W 118°09'0 0.0
2014-Nov-24 00:31N 33°44' W 118°09'0 0.0
2014-Nov-23 23:31N 33°44' W 118°09'0 0.0
2014-Nov-23 22:31N 33°44' W 118°09'0 0.0
2014-Nov-23 21:31N 33°44' W 118°09'0 0.0
2014-Nov-23 20:31N 33°44' W 118°09'0 0.2
2014-Nov-23 19:31N 33°44' W 118°10'4 4.1
2014-Nov-23 18:33N 33°46' W 118°13'1 0.6
2014-Nov-23 17:33N 33°46' W 118°13'0 0.0
2014-Nov-23 16:03N 33°46' W 118°13'0 0.0
2014-Nov-23 08:27N 33°46' W 118°13'0 0.0
2014-Nov-23 01:06N 33°46' W 118°13'0 0.0
2014-Nov-22 23:15N 33°46' W 118°13'0 0.0
2014-Nov-22 22:30N 33°46' W 118°13'0 0.0
2014-Nov-22 19:33N 33°46' W 118°13'0 0.0
2014-Nov-22 18:30N 33°46' W 118°13'0 0.0
2014-Nov-22 17:33N 33°46' W 118°13'0 0.0
2014-Nov-22 06:33N 33°46' W 118°13'0 0.0
2014-Nov-22 05:21N 33°46' W 118°13'0 0.0
2014-Nov-21 23:27N 33°46' W 118°13'0 0.0
2014-Nov-21 22:33N 33°46' W 118°13'0 0.0
2014-Nov-21 21:30N 33°46' W 118°13'0 0.0
2014-Nov-21 20:33N 33°46' W 118°13'0 0.0
2014-Nov-21 19:33N 33°46' W 118°13'0 0.0
2014-Nov-21 18:33N 33°46' W 118°13'0 0.0
2014-Nov-21 17:30N 33°46' W 118°13'0 0.0
2014-Nov-21 16:33N 33°46' W 118°13'0 0.0
2014-Nov-21 15:06N 33°46' W 118°13'0 0.0
2014-Nov-21 14:33N 33°46' W 118°13'0 0.0
2014-Nov-21 13:33N 33°46' W 118°13'0 0.0
2014-Nov-21 12:33N 33°46' W 118°13'0 0.0
2014-Nov-21 11:33N 33°46' W 118°13'0 0.0
2014-Nov-21 10:33N 33°46' W 118°13'0 0.0
2014-Nov-21 09:33N 33°46' W 118°13'0 0.0
2014-Nov-21 08:33N 33°46' W 118°13'0 0.0
2014-Nov-21 07:21N 33°46' W 118°13'0 0.0
2014-Nov-21 06:33N 33°46' W 118°13'0 0.0
2014-Nov-21 03:33N 33°46' W 118°13'0 0.0
2014-Nov-21 02:27N 33°46' W 118°13'0 0.0
2014-Nov-21 01:21N 33°46' W 118°13'0 0.0
2014-Nov-20 23:30N 33°46' W 118°13'0 0.0
2014-Nov-20 22:33N 33°46' W 118°13'0 0.0
2014-Nov-20 21:30N 33°46' W 118°13'0 0.0
2014-Nov-20 20:33N 33°46' W 118°13'0 0.0
2014-Nov-20 19:33N 33°46' W 118°13'0 0.0
2014-Nov-20 18:33N 33°46' W 118°13'0 0.0
2014-Nov-20 17:33N 33°46' W 118°13'0 0.0
2014-Nov-20 15:33N 33°46' W 118°13'0 0.0
2014-Nov-20 13:09N 33°46' W 118°13'0 0.0
2014-Nov-20 12:33N 33°46' W 118°13'0 0.0
2014-Nov-20 11:33N 33°46' W 118°13'0 0.0
2014-Nov-20 07:33N 33°46' W 118°13'0 0.0
2014-Nov-20 02:03N 33°46' W 118°13'0 0.0
2014-Nov-20 01:33N 33°46' W 118°13'0 0.0
2014-Nov-20 00:33N 33°46' W 118°13'0 0.0
2014-Nov-19 23:33N 33°46' W 118°13'0 0.0
2014-Nov-19 22:33N 33°46' W 118°13'0 0.0
2014-Nov-19 21:33N 33°46' W 118°13'0 0.0
2014-Nov-19 20:33N 33°46' W 118°13'0 0.5
2014-Nov-19 19:34N 33°46' W 118°13'3 3.3
2014-Nov-19 18:33N 33°44' W 118°11'1 0.7
2014-Nov-19 17:31N 33°44' W 118°10'0 0.1
2014-Nov-19 16:28N 33°44' W 118°10'0 0.0
2014-Nov-19 15:28N 33°44' W 118°10'0 0.0
2014-Nov-19 14:10N 33°44' W 118°10'0 0.0
2014-Nov-19 13:31N 33°44' W 118°10'0 0.0
2014-Nov-19 12:13N 33°44' W 118°10'0 0.1
2014-Nov-19 11:31N 33°44' W 118°10'0 0.0
2014-Nov-19 10:31N 33°44' W 118°10'0 0.0
2014-Nov-19 09:31N 33°44' W 118°10'0 0.1
2014-Nov-19 08:31N 33°44' W 118°10'0 0.1
2014-Nov-19 07:31N 33°44' W 118°10'0 0.0
2014-Nov-19 06:31N 33°44' W 118°10'0 0.1
2014-Nov-19 05:31N 33°44' W 118°10'0 0.0
2014-Nov-19 04:31N 33°44' W 118°10'0 0.0
2014-Nov-19 03:31N 33°44' W 118°10'0 0.1
2014-Nov-19 02:31N 33°44' W 118°10'0 0.1
2014-Nov-19 01:28N 33°44' W 118°10'0 0.0
2014-Nov-19 00:31N 33°44' W 118°10'0 0.0
2014-Nov-18 23:31N 33°44' W 118°10'0 0.0
2014-Nov-18 22:31N 33°44' W 118°10'0 0.0
2014-Nov-18 21:31N 33°44' W 118°10'0 0.0
2014-Nov-18 20:31N 33°44' W 118°10'0 0.1
2014-Nov-18 19:31N 33°44' W 118°10'0 0.1
2014-Nov-18 18:31N 33°44' W 118°10'0 0.1
2014-Nov-18 17:31N 33°44' W 118°10'0 0.1
2014-Nov-18 16:31N 33°44' W 118°10'0 0.0
2014-Nov-18 15:31N 33°44' W 118°10'0 0.1
2014-Nov-18 14:31N 33°44' W 118°10'0 0.0
2014-Nov-18 13:31N 33°44' W 118°10'0 0.0
2014-Nov-18 12:31N 33°44' W 118°10'0 0.0
2014-Nov-18 11:31N 33°44' W 118°10'0 0.1
2014-Nov-18 10:31N 33°44' W 118°10'0 0.1
2014-Nov-18 09:31N 33°44' W 118°10'0 0.1
2014-Nov-18 08:31N 33°44' W 118°10'0 0.0
2014-Nov-18 07:28N 33°44' W 118°10'0 0.0
2014-Nov-18 06:31N 33°44' W 118°10'0 0.0
2014-Nov-18 05:31N 33°44' W 118°10'0 0.1
2014-Nov-18 04:31N 33°44' W 118°10'0 0.0
2014-Nov-18 03:31N 33°44' W 118°10'0 0.0
2014-Nov-18 02:28N 33°44' W 118°10'0 0.0
2014-Nov-18 01:31N 33°44' W 118°10'0 0.1
2014-Nov-18 00:31N 33°44' W 118°10'0 0.1
2014-Nov-17 23:31N 33°44' W 118°10'0 0.0
2014-Nov-17 22:28N 33°44' W 118°10'0 0.1
2014-Nov-17 21:31N 33°44' W 118°10'0 0.0
2014-Nov-17 20:31N 33°44' W 118°10'  
Track history (hours):
 
Tides and Currents Weather Stations Pressure Air Temp Water Temp Dewpoint Dewpoint Depression Visibility Wind Speed Wind Dir Waves Ship Positions

Overseas Boston

Owner: ASC Leasing VI, Inc., Philadelphia, PA. More information available from US FCC via Universal Licensing System and Coast Guard Vessel Documentation Center.

Last reported at 2014-Nov-27 19:32 UTC. Time now 2014-Nov-27 19:36 UTC.
Position N 33°46' W 118°13'.

Length 183 m; draft 7.5 m.

Type: Tanker. MMSI: 338221000.

Date/timePositionNaut miles runAvg speedWind from/ knotsBaromVisibWave heightAir tempDewpointWater temp
2014-Nov-27 19:32N 33°46' W 118°13'0 0.0
2014-Nov-27 18:32N 33°47' W 118°13'0 0.0
2014-Nov-27 17:23N 33°46' W 118°13'0 0.0
2014-Nov-27 16:32N 33°46' W 118°13'0 0.0
2014-Nov-27 15:17N 33°46' W 118°13'0 0.0
2014-Nov-27 14:29N 33°46' W 118°13'0 0.0
2014-Nov-27 11:23N 33°46' W 118°13'0 0.0
2014-Nov-27 10:29N 33°46' W 118°13'0 0.0
2014-Nov-27 09:26N 33°46' W 118°13'0 0.0
2014-Nov-27 08:32N 33°46' W 118°13'0 0.0
2014-Nov-27 07:26N 33°46' W 118°13'0 0.0
2014-Nov-27 06:32N 33°46' W 118°13'0 0.0
2014-Nov-27 05:32N 33°46' W 118°13'0 0.0
2014-Nov-27 04:29N 33°46' W 118°13'0 0.0
2014-Nov-27 03:32N 33°46' W 118°13'0 0.4
2014-Nov-27 02:33N 33°46' W 118°13'3 2.9
2014-Nov-27 01:33N 33°43' W 118°13'0 0.1
2014-Nov-27 00:33N 33°43' W 118°13'0 0.0
2014-Nov-26 23:27N 33°43' W 118°13'0 0.1
2014-Nov-26 22:30N 33°44' W 118°13'0 0.0
2014-Nov-26 21:30N 33°44' W 118°13'0 0.0
2014-Nov-26 20:33N 33°44' W 118°13'1 1.1
2014-Nov-26 19:33N 33°44' W 118°12'1 0.5
2014-Nov-26 18:29N 33°45' W 118°13'0 0.0
2014-Nov-26 17:29N 33°45' W 118°13'0 0.0
2014-Nov-26 16:29N 33°45' W 118°13'0 0.0
2014-Nov-26 15:32N 33°45' W 118°13'0 0.0
2014-Nov-26 14:29N 33°45' W 118°13'0 0.0
2014-Nov-26 13:32N 33°45' W 118°13'0 0.0
2014-Nov-26 12:29N 33°45' W 118°13'0 0.0
2014-Nov-26 10:26N 33°45' W 118°13'0 0.0
2014-Nov-26 09:11N 33°45' W 118°13'0 0.0
2014-Nov-26 08:29N 33°45' W 118°13'0 0.0
2014-Nov-26 07:29N 33°45' W 118°13'0 0.0
2014-Nov-26 06:32N 33°45' W 118°13'0 0.0
2014-Nov-26 05:14N 33°45' W 118°13'0 0.0
2014-Nov-26 04:11N 33°45' W 118°13'0 0.0
2014-Nov-26 03:23N 33°45' W 118°13'0 0.0
2014-Nov-26 01:32N 33°45' W 118°13'0 0.0
2014-Nov-26 00:32N 33°45' W 118°13'0 0.0
2014-Nov-25 23:32N 33°45' W 118°13'0 0.0
2014-Nov-25 22:23N 33°45' W 118°13'0 0.0
2014-Nov-25 21:26N 33°45' W 118°13'0 0.0
2014-Nov-25 20:32N 33°45' W 118°13'0 0.0
2014-Nov-25 19:29N 33°45' W 118°13'1 0.7
2014-Nov-25 18:33N 33°44' W 118°12'3 2.4
2014-Nov-25 17:31N 33°44' W 118°09'0 0.0
2014-Nov-25 16:31N 33°44' W 118°09'0 0.0
2014-Nov-25 15:28N 33°44' W 118°09'0 0.0
2014-Nov-25 14:28N 33°44' W 118°09'0 0.0
2014-Nov-25 13:31N 33°44' W 118°09'0 0.0
2014-Nov-25 12:31N 33°44' W 118°09'0 0.0
2014-Nov-25 11:31N 33°44' W 118°09'0 0.0
2014-Nov-25 10:31N 33°44' W 118°09'0 0.0
2014-Nov-25 09:31N 33°44' W 118°09'0 0.0
2014-Nov-25 08:28N 33°44' W 118°10'0 0.0
2014-Nov-25 07:25N 33°44' W 118°10'0 0.0
2014-Nov-25 06:28N 33°44' W 118°10'0 0.0
2014-Nov-25 04:16N 33°44' W 118°10'0 0.2
2014-Nov-25 03:31N 33°44' W 118°10'0 0.1
2014-Nov-25 02:31N 33°44' W 118°09'0 0.0
2014-Nov-25 00:31N 33°44' W 118°09'0 0.0
2014-Nov-24 23:31N 33°44' W 118°09'0 0.0
2014-Nov-24 22:31N 33°44' W 118°09'0 0.1
2014-Nov-24 21:31N 33°44' W 118°09'0 0.1
2014-Nov-24 20:31N 33°44' W 118°10'0 0.1
2014-Nov-24 19:31N 33°44' W 118°10'0 0.2
2014-Nov-24 18:31N 33°44' W 118°09'0 0.1
2014-Nov-24 17:31N 33°44' W 118°10'0 0.1
2014-Nov-24 16:31N 33°44' W 118°09'0 0.0
2014-Nov-24 15:31N 33°44' W 118°09'0 0.0
2014-Nov-24 14:31N 33°44' W 118°09'0 0.0
2014-Nov-24 13:31N 33°44' W 118°09'0 0.0
2014-Nov-24 12:31N 33°44' W 118°09'0 0.0
2014-Nov-24 11:31N 33°44' W 118°09'0 0.1
2014-Nov-24 10:31N 33°44' W 118°09'0 0.1
2014-Nov-24 09:31N 33°44' W 118°09'0 0.0
2014-Nov-24 08:31N 33°44' W 118°09'0 0.0
2014-Nov-24 07:31N 33°44' W 118°10'0 0.1
2014-Nov-24 06:25N 33°44' W 118°10'0 0.0
2014-Nov-24 05:10N 33°44' W 118°10'0 0.0
2014-Nov-24 04:31N 33°44' W 118°10'0 0.1
2014-Nov-24 03:31N 33°44' W 118°09'0 0.1
2014-Nov-24 02:31N 33°44' W 118°09'0 0.0
2014-Nov-24 01:31N 33°44' W 118°09'0 0.0
2014-Nov-24 00:31N 33°44' W 118°09'0 0.0
2014-Nov-23 23:31N 33°44' W 118°09'0 0.0
2014-Nov-23 22:31N 33°44' W 118°09'0 0.0
2014-Nov-23 21:31N 33°44' W 118°09'0 0.0
2014-Nov-23 20:31N 33°44' W 118°09'0 0.2
2014-Nov-23 19:31N 33°44' W 118°10'4 4.1
2014-Nov-23 18:33N 33°46' W 118°13'1 0.6
2014-Nov-23 17:33N 33°46' W 118°13'0 0.0
2014-Nov-23 16:03N 33°46' W 118°13'0 0.0
2014-Nov-23 08:27N 33°46' W 118°13'0 0.0
2014-Nov-23 01:06N 33°46' W 118°13'0 0.0
2014-Nov-22 23:15N 33°46' W 118°13'0 0.0
2014-Nov-22 22:30N 33°46' W 118°13'0 0.0
2014-Nov-22 19:33N 33°46' W 118°13'0 0.0
2014-Nov-22 18:30N 33°46' W 118°13'0 0.0
2014-Nov-22 17:33N 33°46' W 118°13'0 0.0
2014-Nov-22 06:33N 33°46' W 118°13'0 0.0
2014-Nov-22 05:21N 33°46' W 118°13'0 0.0
2014-Nov-21 23:27N 33°46' W 118°13'0 0.0
2014-Nov-21 22:33N 33°46' W 118°13'0 0.0
2014-Nov-21 21:30N 33°46' W 118°13'0 0.0
2014-Nov-21 20:33N 33°46' W 118°13'0 0.0
2014-Nov-21 19:33N 33°46' W 118°13'0 0.0
2014-Nov-21 18:33N 33°46' W 118°13'0 0.0
2014-Nov-21 17:30N 33°46' W 118°13'0 0.0
2014-Nov-21 16:33N 33°46' W 118°13'0 0.0
2014-Nov-21 15:06N 33°46' W 118°13'0 0.0
2014-Nov-21 14:33N 33°46' W 118°13'0 0.0
2014-Nov-21 13:33N 33°46' W 118°13'0 0.0
2014-Nov-21 12:33N 33°46' W 118°13'0 0.0
2014-Nov-21 11:33N 33°46' W 118°13'0 0.0
2014-Nov-21 10:33N 33°46' W 118°13'0 0.0
2014-Nov-21 09:33N 33°46' W 118°13'0 0.0
2014-Nov-21 08:33N 33°46' W 118°13'0 0.0
2014-Nov-21 07:21N 33°46' W 118°13'0 0.0
2014-Nov-21 06:33N 33°46' W 118°13'0 0.0
2014-Nov-21 03:33N 33°46' W 118°13'0 0.0
2014-Nov-21 02:27N 33°46' W 118°13'0 0.0
2014-Nov-21 01:21N 33°46' W 118°13'0 0.0
2014-Nov-20 23:30N 33°46' W 118°13'0 0.0
2014-Nov-20 22:33N 33°46' W 118°13'0 0.0
2014-Nov-20 21:30N 33°46' W 118°13'0 0.0
2014-Nov-20 20:33N 33°46' W 118°13'0 0.0
2014-Nov-20 19:33N 33°46' W 118°13'0 0.0
2014-Nov-20 18:33N 33°46' W 118°13'0 0.0
2014-Nov-20 17:33N 33°46' W 118°13'0 0.0
2014-Nov-20 15:33N 33°46' W 118°13'0 0.0
2014-Nov-20 13:09N 33°46' W 118°13'0 0.0
2014-Nov-20 12:33N 33°46' W 118°13'0 0.0
2014-Nov-20 11:33N 33°46' W 118°13'0 0.0
2014-Nov-20 07:33N 33°46' W 118°13'0 0.0
2014-Nov-20 02:03N 33°46' W 118°13'0 0.0
2014-Nov-20 01:33N 33°46' W 118°13'0 0.0
2014-Nov-20 00:33N 33°46' W 118°13'0 0.0
2014-Nov-19 23:33N 33°46' W 118°13'0 0.0
2014-Nov-19 22:33N 33°46' W 118°13'0 0.0
2014-Nov-19 21:33N 33°46' W 118°13'0 0.0
2014-Nov-19 20:33N 33°46' W 118°13'0 0.5
2014-Nov-19 19:34N 33°46' W 118°13'3 3.3
2014-Nov-19 18:33N 33°44' W 118°11'1 0.7
2014-Nov-19 17:31N 33°44' W 118°10'0 0.1
2014-Nov-19 16:28N 33°44' W 118°10'0 0.0
2014-Nov-19 15:28N 33°44' W 118°10'0 0.0
2014-Nov-19 14:10N 33°44' W 118°10'0 0.0
2014-Nov-19 13:31N 33°44' W 118°10'0 0.0
2014-Nov-19 12:13N 33°44' W 118°10'0 0.1
2014-Nov-19 11:31N 33°44' W 118°10'0 0.0
2014-Nov-19 10:31N 33°44' W 118°10'0 0.0
2014-Nov-19 09:31N 33°44' W 118°10'0 0.1
2014-Nov-19 08:31N 33°44' W 118°10'0 0.1
2014-Nov-19 07:31N 33°44' W 118°10'0 0.0
2014-Nov-19 06:31N 33°44' W 118°10'0 0.1
2014-Nov-19 05:31N 33°44' W 118°10'0 0.0
2014-Nov-19 04:31N 33°44' W 118°10'0 0.0
2014-Nov-19 03:31N 33°44' W 118°10'0 0.1
2014-Nov-19 02:31N 33°44' W 118°10'0 0.1
2014-Nov-19 01:28N 33°44' W 118°10'0 0.0
2014-Nov-19 00:31N 33°44' W 118°10'0 0.0
2014-Nov-18 23:31N 33°44' W 118°10'0 0.0
2014-Nov-18 22:31N 33°44' W 118°10'0 0.0
2014-Nov-18 21:31N 33°44' W 118°10'0 0.0
2014-Nov-18 20:31N 33°44' W 118°10'0 0.1
2014-Nov-18 19:31N 33°44' W 118°10'0 0.1
2014-Nov-18 18:31N 33°44' W 118°10'0 0.1
2014-Nov-18 17:31N 33°44' W 118°10'0 0.1
2014-Nov-18 16:31N 33°44' W 118°10'0 0.0
2014-Nov-18 15:31N 33°44' W 118°10'0 0.1
2014-Nov-18 14:31N 33°44' W 118°10'0 0.0
2014-Nov-18 13:31N 33°44' W 118°10'0 0.0
2014-Nov-18 12:31N 33°44' W 118°10'0 0.0
2014-Nov-18 11:31N 33°44' W 118°10'0 0.1
2014-Nov-18 10:31N 33°44' W 118°10'0 0.1
2014-Nov-18 09:31N 33°44' W 118°10'0 0.1
2014-Nov-18 08:31N 33°44' W 118°10'0 0.0
2014-Nov-18 07:28N 33°44' W 118°10'0 0.0
2014-Nov-18 06:31N 33°44' W 118°10'0 0.0
2014-Nov-18 05:31N 33°44' W 118°10'0 0.1
2014-Nov-18 04:31N 33°44' W 118°10'0 0.0
2014-Nov-18 03:31N 33°44' W 118°10'0 0.0
2014-Nov-18 02:28N 33°44' W 118°10'0 0.0
2014-Nov-18 01:31N 33°44' W 118°10'0 0.1
2014-Nov-18 00:31N 33°44' W 118°10'0 0.1
2014-Nov-17 23:31N 33°44' W 118°10'0 0.0
2014-Nov-17 22:28N 33°44' W 118°10'0 0.1
2014-Nov-17 21:31N 33°44' W 118°10'0 0.0
2014-Nov-17 20:31N 33°44' W 118°10'  

Dump ship's entire track history